This demonstration page uses our WeatherBlox Daily Observations layout. Learn more.

39.92423, -83.80882

Hourly Observations for May 30, 2017

Temp ( °F °C ) Dew Point ( °F °C ) Humidity (%) Winds ( mph kmh ) Pressure ( in mb ) Visibility ( mi km ) Precip ( " mm )
12:56 am 00:56 Clear 67 19.4 55 12.8 66 66 SSW 6 9 29.92 1013 10 16.0934 0 0
1:56 am 01:56 Clear 65 18.3 55 12.8 70 70 Calm 29.93 1014 10 16.0934 0 0
2:56 am 02:56 Clear 62 16.7 55 12.8 78 78 W 3 6 29.94 1014 10 16.0934 0 0
3:56 am 03:56 Partly Cloudy 59 15 55 12.8 87 87 WNW 7 11 29.95 1014 10 16.0934 0 0
4:56 am 04:56 Mostly Clear 58 14.4 54 12.2 87 87 Calm 29.95 1014 10 16.0934 0 0
5:56 am 05:56 Clear 56 13.3 54 12.2 93 93 W 3 6 29.97 1015 10 16.0934 0 0
6:56 am 06:56 Sunny 57 13.9 55 12.8 93 93 WSW 6 9 30 1016 10 16.0934 0 0
7:56 am 07:56 Sunny 62 16.7 56 13.3 80 80 SW 7 11 30.01 1016 10 16.0934 0 0
8:56 am 08:56 Sunny 66 18.9 56 13.3 70 70 SSW 6 9 30.01 1016 10 16.0934 0 0
9:56 am 09:56 Sunny 71 21.7 54 12.2 55 55 SW 7 11 29.99 1016 10 16.0934 0 0
10:56 am 10:56 Sunny 75 23.9 50 10 41 41 W 9 15 29.99 1016 10 16.0934 0 0
11:56 am 11:56 Sunny 76 24.4 48 8.9 37 37 WSW 14 22 30 1016 10 16.0934 0 0
12:56 pm 12:56 Mostly Sunny 77 25 50 10 39 39 W 16 26 30 1016 10 16.0934 0 0
1:56 pm 13:56 Cloudy 76 24.4 48 8.9 37 37 W 16 26 29.99 1016 10 16.0934 0 0
3:56 pm 15:56 Mostly Cloudy 78 25.6 50 10 37 37 W 16 26 29.97 1015 10 16.0934 0 0
4:56 pm 16:56 Partly Cloudy 78 25.6 49 9.4 36 36 W 16 26 29.98 1015 10 16.0934 0 0
5:56 pm 17:56 Partly Cloudy 75 23.9 49 9.4 40 40 W 15 24 29.98 1015 10 16.0934 0 0
6:56 pm 18:56 Mostly Sunny 75 23.9 47 8.3 37 37 WNW 13 20 29.97 1015 10 16.0934 0 0
7:56 pm 19:56 Sunny 73 22.8 47 8.3 40 40 WNW 15 24 29.98 1015 10 16.0934 0 0
8:56 pm 20:56 Sunny 68 20 47 8.3 47 47 W 7 11 30 1016 10 16.0934 0 0
9:56 pm 21:56 Clear 64 17.8 46 7.8 52 52 W 5 7 30.01 1016 10 16.0934 0 0
10:56 pm 22:56 Clear 62 16.7 46 7.8 56 56 WSW 3 6 30.01 1016 10 16.0934 0 0
11:56 pm 23:56 Clear 57 13.9 48 8.9 72 72 Calm 30.01 1016 10 16.0934 0 0

Powered by AerisWeather